sensor_id;sensor_type;location;lat;lon;timestamp;pressure;altitude;pressure_sealevel;temperature;humidity
59971;BME280;45825;45.434;9.116;2023-05-14T00:01:38;100279.41;;;15.80;77.72
59971;BME280;45825;45.434;9.116;2023-05-14T00:04:04;100276.25;;;15.75;78.50
59971;BME280;45825;45.434;9.116;2023-05-14T00:06:29;100276.25;;;15.75;78.79
59971;BME280;45825;45.434;9.116;2023-05-14T00:08:54;100277.81;;;15.66;80.52
59971;BME280;45825;45.434;9.116;2023-05-14T00:11:20;100268.03;;;15.55;80.92
59971;BME280;45825;45.434;9.116;2023-05-14T00:13:45;100267.78;;;15.47;81.82
59971;BME280;45825;45.434;9.116;2023-05-14T00:16:11;100266.44;;;15.41;83.28
59971;BME280;45825;45.434;9.116;2023-05-14T00:18:36;100254.34;;;15.37;84.25
59971;BME280;45825;45.434;9.116;2023-05-14T00:21:02;100252.19;;;15.31;86.00
59971;BME280;45825;45.434;9.116;2023-05-14T00:23:27;100255.19;;;15.26;87.56
59971;BME280;45825;45.434;9.116;2023-05-14T00:25:52;100266.81;;;15.12;91.03
59971;BME280;45825;45.434;9.116;2023-05-14T00:28:17;100259.38;;;15.17;93.86
59971;BME280;45825;45.434;9.116;2023-05-14T00:30:43;100245.28;;;15.17;99.41
59971;BME280;45825;45.434;9.116;2023-05-14T00:33:08;100256.72;;;15.17;100.00
59971;BME280;45825;45.434;9.116;2023-05-14T00:35:34;100249.38;;;15.21;100.00
59971;BME280;45825;45.434;9.116;2023-05-14T00:38:00;100239.72;;;15.20;100.00
59971;BME280;45825;45.434;9.116;2023-05-14T00:40:26;100244.06;;;15.21;100.00
59971;BME280;45825;45.434;9.116;2023-05-14T00:42:52;100237.22;;;15.18;100.00
59971;BME280;45825;45.434;9.116;2023-05-14T00:45:18;100239.34;;;15.13;100.00
59971;BME280;45825;45.434;9.116;2023-05-14T00:47:43;100238.19;;;14.93;100.00
59971;BME280;45825;45.434;9.116;2023-05-14T00:50:09;100237.47;;;14.91;100.00
59971;BME280;45825;45.434;9.116;2023-05-14T00:52:36;100230.53;;;15.01;100.00
59971;BME280;45825;45.434;9.116;2023-05-14T00:55:03;100228.81;;;15.00;100.00
59971;BME280;45825;45.434;9.116;2023-05-14T00:57:30;100230.09;;;15.19;100.00
59971;BME280;45825;45.434;9.116;2023-05-14T00:59:55;100228.28;;;15.08;100.00
59971;BME280;45825;45.434;9.116;2023-05-14T01:02:21;100235.00;;;15.12;100.00
59971;BME280;45825;45.434;9.116;2023-05-14T01:04:46;100228.84;;;15.12;100.00
59971;BME280;45825;45.434;9.116;2023-05-14T01:10:38;100224.78;;;15.19;100.00
59971;BME280;45825;45.434;9.116;2023-05-14T01:15:35;100224.94;;;15.17;100.00
59971;BME280;45825;45.434;9.116;2023-05-14T01:18:04;100222.72;;;15.11;100.00
59971;BME280;45825;45.434;9.116;2023-05-14T01:20:31;100227.06;;;15.12;100.00
59971;BME280;45825;45.434;9.116;2023-05-14T01:22:56;100218.25;;;15.12;100.00
59971;BME280;45825;45.434;9.116;2023-05-14T01:25:21;100217.44;;;15.11;100.00
59971;BME280;45825;45.434;9.116;2023-05-14T01:28:08;100214.31;;;15.17;100.00
59971;BME280;45825;45.434;9.116;2023-05-14T01:31:03;100219.03;;;15.25;100.00
59971;BME280;45825;45.434;9.116;2023-05-14T01:33:28;100214.91;;;15.21;100.00
59971;BME280;45825;45.434;9.116;2023-05-14T01:35:54;100215.78;;;15.21;100.00
59971;BME280;45825;45.434;9.116;2023-05-14T01:38:20;100207.09;;;15.19;100.00
59971;BME280;45825;45.434;9.116;2023-05-14T01:40:47;100203.97;;;15.26;100.00
59971;BME280;45825;45.434;9.116;2023-05-14T01:43:14;100202.91;;;15.28;100.00
59971;BME280;45825;45.434;9.116;2023-05-14T01:45:40;100205.91;;;15.35;100.00
59971;BME280;45825;45.434;9.116;2023-05-14T01:48:06;100201.84;;;15.42;100.00
59971;BME280;45825;45.434;9.116;2023-05-14T01:50:31;100194.25;;;15.38;100.00
59971;BME280;45825;45.434;9.116;2023-05-14T01:52:57;100192.06;;;15.31;100.00
59971;BME280;45825;45.434;9.116;2023-05-14T01:55:22;100187.97;;;15.27;100.00
59971;BME280;45825;45.434;9.116;2023-05-14T01:57:49;100191.56;;;15.26;100.00
59971;BME280;45825;45.434;9.116;2023-05-14T02:00:14;100188.66;;;15.18;100.00
59971;BME280;45825;45.434;9.116;2023-05-14T02:02:39;100185.38;;;15.14;100.00
59971;BME280;45825;45.434;9.116;2023-05-14T02:05:05;100181.44;;;15.31;100.00
59971;BME280;45825;45.434;9.116;2023-05-14T02:07:30;100177.22;;;15.17;100.00
59971;BME280;45825;45.434;9.116;2023-05-14T02:09:56;100169.72;;;15.11;100.00
59971;BME280;45825;45.434;9.116;2023-05-14T02:12:21;100168.03;;;14.99;100.00
59971;BME280;45825;45.434;9.116;2023-05-14T02:14:46;100163.09;;;15.05;100.00
59971;BME280;45825;45.434;9.116;2023-05-14T02:17:12;100170.06;;;15.06;100.00
59971;BME280;45825;45.434;9.116;2023-05-14T02:19:40;100172.13;;;15.14;100.00
59971;BME280;45825;45.434;9.116;2023-05-14T02:22:05;100164.69;;;15.08;100.00
59971;BME280;45825;45.434;9.116;2023-05-14T02:24:30;100162.50;;;15.13;100.00
59971;BME280;45825;45.434;9.116;2023-05-14T02:26:55;100169.63;;;15.13;100.00
59971;BME280;45825;45.434;9.116;2023-05-14T02:29:21;100161.78;;;15.11;100.00
59971;BME280;45825;45.434;9.116;2023-05-14T02:31:46;100158.28;;;15.22;100.00
59971;BME280;45825;45.434;9.116;2023-05-14T02:34:11;100165.06;;;15.26;100.00
59971;BME280;45825;45.434;9.116;2023-05-14T02:36:37;100162.28;;;15.28;100.00
59971;BME280;45825;45.434;9.116;2023-05-14T02:39:02;100153.25;;;15.30;100.00
59971;BME280;45825;45.434;9.116;2023-05-14T02:41:29;100157.38;;;15.34;100.00
59971;BME280;45825;45.434;9.116;2023-05-14T02:43:54;100156.50;;;15.34;100.00
59971;BME280;45825;45.434;9.116;2023-05-14T02:46:19;100157.22;;;15.36;100.00
59971;BME280;45825;45.434;9.116;2023-05-14T02:48:44;100155.31;;;15.38;100.00
59971;BME280;45825;45.434;9.116;2023-05-14T02:51:10;100161.56;;;15.37;100.00
59971;BME280;45825;45.434;9.116;2023-05-14T02:53:36;100153.16;;;15.32;100.00
59971;BME280;45825;45.434;9.116;2023-05-14T02:56:01;100156.53;;;15.45;100.00
59971;BME280;45825;45.434;9.116;2023-05-14T02:58:26;100155.09;;;15.41;100.00
59971;BME280;45825;45.434;9.116;2023-05-14T03:00:52;100150.75;;;15.29;100.00
59971;BME280;45825;45.434;9.116;2023-05-14T03:03:18;100150.94;;;15.14;100.00
59971;BME280;45825;45.434;9.116;2023-05-14T03:05:43;100146.50;;;15.15;100.00
59971;BME280;45825;45.434;9.116;2023-05-14T03:08:09;100139.13;;;15.07;100.00
59971;BME280;45825;45.434;9.116;2023-05-14T03:10:34;100131.41;;;15.04;100.00
59971;BME280;45825;45.434;9.116;2023-05-14T03:12:59;100134.75;;;14.94;100.00
59971;BME280;45825;45.434;9.116;2023-05-14T03:15:25;100136.81;;;14.91;100.00
59971;BME280;45825;45.434;9.116;2023-05-14T03:17:50;100136.69;;;14.92;100.00
59971;BME280;45825;45.434;9.116;2023-05-14T03:20:15;100137.88;;;14.88;100.00
59971;BME280;45825;45.434;9.116;2023-05-14T03:22:41;100141.22;;;14.79;100.00
59971;BME280;45825;45.434;9.116;2023-05-14T03:25:06;100135.97;;;14.66;100.00
59971;BME280;45825;45.434;9.116;2023-05-14T03:27:32;100133.56;;;14.63;100.00
59971;BME280;45825;45.434;9.116;2023-05-14T03:29:58;100133.56;;;14.63;100.00
59971;BME280;45825;45.434;9.116;2023-05-14T03:32:24;100128.34;;;14.61;100.00
59971;BME280;45825;45.434;9.116;2023-05-14T03:34:49;100131.34;;;14.57;100.00
59971;BME280;45825;45.434;9.116;2023-05-14T03:37:15;100131.19;;;14.71;100.00
59971;BME280;45825;45.434;9.116;2023-05-14T03:39:40;100135.94;;;14.79;100.00
59971;BME280;45825;45.434;9.116;2023-05-14T03:42:05;100139.94;;;14.72;100.00
59971;BME280;45825;45.434;9.116;2023-05-14T03:44:31;100133.88;;;14.58;100.00
59971;BME280;45825;45.434;9.116;2023-05-14T03:46:56;100137.75;;;14.54;100.00
59971;BME280;45825;45.434;9.116;2023-05-14T03:49:21;100133.31;;;14.66;100.00
59971;BME280;45825;45.434;9.116;2023-05-14T03:51:47;100127.47;;;14.74;100.00
59971;BME280;45825;45.434;9.116;2023-05-14T03:54:12;100130.00;;;14.75;100.00
59971;BME280;45825;45.434;9.116;2023-05-14T03:56:37;100131.00;;;14.61;100.00
59971;BME280;45825;45.434;9.116;2023-05-14T03:59:02;100123.81;;;14.63;100.00
59971;BME280;45825;45.434;9.116;2023-05-14T04:01:28;100126.47;;;14.63;100.00
59971;BME280;45825;45.434;9.116;2023-05-14T04:03:53;100133.84;;;14.71;100.00
59971;BME280;45825;45.434;9.116;2023-05-14T04:06:18;100126.66;;;14.85;100.00
59971;BME280;45825;45.434;9.116;2023-05-14T04:08:44;100121.13;;;14.88;100.00
59971;BME280;45825;45.434;9.116;2023-05-14T04:11:09;100116.41;;;14.80;100.00
59971;BME280;45825;45.434;9.116;2023-05-14T04:13:34;100124.72;;;14.75;100.00
59971;BME280;45825;45.434;9.116;2023-05-14T04:16:00;100121.41;;;14.72;100.00
59971;BME280;45825;45.434;9.116;2023-05-14T04:18:25;100120.47;;;14.73;100.00
59971;BME280;45825;45.434;9.116;2023-05-14T04:20:50;100111.41;;;14.64;100.00
59971;BME280;45825;45.434;9.116;2023-05-14T04:23:19;100110.06;;;14.58;100.00
59971;BME280;45825;45.434;9.116;2023-05-14T04:25:44;100112.81;;;14.57;100.00
59971;BME280;45825;45.434;9.116;2023-05-14T04:28:09;100111.25;;;14.54;100.00
59971;BME280;45825;45.434;9.116;2023-05-14T04:30:35;100106.31;;;14.49;100.00
59971;BME280;45825;45.434;9.116;2023-05-14T04:33:00;100106.31;;;14.49;100.00
59971;BME280;45825;45.434;9.116;2023-05-14T04:35:26;100105.78;;;14.44;100.00
59971;BME280;45825;45.434;9.116;2023-05-14T04:37:51;100099.34;;;14.48;100.00
59971;BME280;45825;45.434;9.116;2023-05-14T04:40:17;100104.09;;;14.43;100.00
59971;BME280;45825;45.434;9.116;2023-05-14T04:42:43;100106.88;;;14.42;100.00
59971;BME280;45825;45.434;9.116;2023-05-14T04:45:08;100103.75;;;14.48;100.00
59971;BME280;45825;45.434;9.116;2023-05-14T04:47:34;100100.88;;;14.51;100.00
59971;BME280;45825;45.434;9.116;2023-05-14T04:50:00;100103.81;;;14.35;100.00
59971;BME280;45825;45.434;9.116;2023-05-14T04:52:25;100097.06;;;14.31;100.00
59971;BME280;45825;45.434;9.116;2023-05-14T04:54:50;100100.59;;;14.31;100.00
59971;BME280;45825;45.434;9.116;2023-05-14T04:57:16;100096.84;;;14.34;100.00
59971;BME280;45825;45.434;9.116;2023-05-14T04:59:41;100099.78;;;14.42;100.00
59971;BME280;45825;45.434;9.116;2023-05-14T05:02:07;100099.91;;;14.52;100.00
59971;BME280;45825;45.434;9.116;2023-05-14T05:04:32;100104.31;;;14.64;100.00
59971;BME280;45825;45.434;9.116;2023-05-14T05:06:57;100099.13;;;14.63;100.00
59971;BME280;45825;45.434;9.116;2023-05-14T05:09:22;100099.59;;;14.68;100.00
59971;BME280;45825;45.434;9.116;2023-05-14T05:11:48;100100.91;;;14.62;100.00
59971;BME280;45825;45.434;9.116;2023-05-14T05:14:13;100100.84;;;14.39;100.00
59971;BME280;45825;45.434;9.116;2023-05-14T05:16:38;100103.38;;;14.41;100.00
59971;BME280;45825;45.434;9.116;2023-05-14T05:19:04;100099.53;;;14.45;100.00
59971;BME280;45825;45.434;9.116;2023-05-14T05:21:29;100099.72;;;14.31;100.00
59971;BME280;45825;45.434;9.116;2023-05-14T05:23:55;100098.72;;;14.20;100.00
59971;BME280;45825;45.434;9.116;2023-05-14T05:26:20;100100.41;;;14.21;100.00
59971;BME280;45825;45.434;9.116;2023-05-14T05:28:46;100106.94;;;14.29;100.00
59971;BME280;45825;45.434;9.116;2023-05-14T05:31:11;100097.59;;;14.36;100.00
59971;BME280;45825;45.434;9.116;2023-05-14T05:33:37;100096.59;;;14.25;100.00
59971;BME280;45825;45.434;9.116;2023-05-14T05:36:03;100104.97;;;14.19;100.00
59971;BME280;45825;45.434;9.116;2023-05-14T05:38:28;100110.34;;;14.18;100.00
59971;BME280;45825;45.434;9.116;2023-05-14T05:40:53;100101.88;;;14.25;100.00
59971;BME280;45825;45.434;9.116;2023-05-14T05:43:19;100099.72;;;14.31;100.00
59971;BME280;45825;45.434;9.116;2023-05-14T05:45:44;100099.50;;;14.34;100.00
59971;BME280;45825;45.434;9.116;2023-05-14T05:48:10;100098.16;;;14.28;100.00
59971;BME280;45825;45.434;9.116;2023-05-14T05:50:35;100096.34;;;14.29;100.00
59971;BME280;45825;45.434;9.116;2023-05-14T05:53:01;100094.72;;;14.39;100.00
59971;BME280;45825;45.434;9.116;2023-05-14T05:55:27;100094.41;;;14.55;100.00
59971;BME280;45825;45.434;9.116;2023-05-14T05:57:52;100095.19;;;14.69;100.00
59971;BME280;45825;45.434;9.116;2023-05-14T06:00:18;100098.75;;;14.56;100.00
59971;BME280;45825;45.434;9.116;2023-05-14T06:02:45;100088.53;;;14.63;100.00
59971;BME280;45825;45.434;9.116;2023-05-14T06:05:11;100085.31;;;14.71;100.00
59971;BME280;45825;45.434;9.116;2023-05-14T06:07:36;100081.81;;;14.70;100.00
59971;BME280;45825;45.434;9.116;2023-05-14T06:10:02;100083.19;;;14.76;100.00
59971;BME280;45825;45.434;9.116;2023-05-14T06:12:27;100087.78;;;14.85;100.00
59971;BME280;45825;45.434;9.116;2023-05-14T06:14:54;100086.94;;;14.85;100.00
59971;BME280;45825;45.434;9.116;2023-05-14T06:17:20;100095.59;;;14.75;100.00
59971;BME280;45825;45.434;9.116;2023-05-14T06:19:53;100096.47;;;14.63;100.00
59971;BME280;45825;45.434;9.116;2023-05-14T06:22:19;100093.72;;;14.64;100.00
59971;BME280;45825;45.434;9.116;2023-05-14T06:24:44;100097.59;;;14.72;100.00
59971;BME280;45825;45.434;9.116;2023-05-14T06:27:10;100090.56;;;14.84;100.00
59971;BME280;45825;45.434;9.116;2023-05-14T06:29:36;100086.56;;;14.78;100.00
59971;BME280;45825;45.434;9.116;2023-05-14T06:32:02;100085.63;;;14.90;100.00
59971;BME280;45825;45.434;9.116;2023-05-14T06:34:28;100085.63;;;14.90;100.00
59971;BME280;45825;45.434;9.116;2023-05-14T06:36:53;100086.25;;;14.94;100.00
59971;BME280;45825;45.434;9.116;2023-05-14T06:39:18;100090.13;;;15.01;100.00
59971;BME280;45825;45.434;9.116;2023-05-14T06:41:44;100095.44;;;15.13;100.00
59971;BME280;45825;45.434;9.116;2023-05-14T06:44:09;100096.50;;;15.21;100.00
59971;BME280;45825;45.434;9.116;2023-05-14T06:46:35;100098.56;;;15.41;100.00
59971;BME280;45825;45.434;9.116;2023-05-14T06:49:01;100093.00;;;15.44;100.00
59971;BME280;45825;45.434;9.116;2023-05-14T06:51:29;100086.38;;;15.49;100.00
59971;BME280;45825;45.434;9.116;2023-05-14T06:53:55;100086.03;;;15.43;100.00
59971;BME280;45825;45.434;9.116;2023-05-14T06:56:21;100090.97;;;15.36;100.00
59971;BME280;45825;45.434;9.116;2023-05-14T06:58:47;100088.66;;;15.43;100.00
59971;BME280;45825;45.434;9.116;2023-05-14T07:01:12;100093.38;;;15.62;100.00
59971;BME280;45825;45.434;9.116;2023-05-14T07:03:37;100088.44;;;15.69;100.00
59971;BME280;45825;45.434;9.116;2023-05-14T07:06:03;100086.13;;;15.64;100.00
59971;BME280;45825;45.434;9.116;2023-05-14T07:08:28;100088.91;;;15.62;100.00
59971;BME280;45825;45.434;9.116;2023-05-14T07:10:53;100087.56;;;15.68;100.00
59971;BME280;45825;45.434;9.116;2023-05-14T07:13:19;100085.03;;;15.78;100.00
59971;BME280;45825;45.434;9.116;2023-05-14T07:15:44;100089.22;;;15.81;100.00
59971;BME280;45825;45.434;9.116;2023-05-14T07:18:10;100083.47;;;15.75;100.00
59971;BME280;45825;45.434;9.116;2023-05-14T07:20:35;100087.69;;;15.78;100.00
59971;BME280;45825;45.434;9.116;2023-05-14T07:23:00;100084.19;;;15.77;100.00
59971;BME280;45825;45.434;9.116;2023-05-14T07:25:25;100079.81;;;15.88;100.00
59971;BME280;45825;45.434;9.116;2023-05-14T07:27:51;100073.44;;;16.02;100.00
59971;BME280;45825;45.434;9.116;2023-05-14T07:30:16;100067.44;;;16.21;100.00
59971;BME280;45825;45.434;9.116;2023-05-14T07:32:41;100071.28;;;16.28;100.00
59971;BME280;45825;45.434;9.116;2023-05-14T07:35:07;100055.88;;;16.22;100.00
59971;BME280;45825;45.434;9.116;2023-05-14T07:37:33;100061.09;;;16.12;100.00
59971;BME280;45825;45.434;9.116;2023-05-14T07:39:58;100063.31;;;15.96;100.00
59971;BME280;45825;45.434;9.116;2023-05-14T07:42:23;100065.38;;;15.92;100.00
59971;BME280;45825;45.434;9.116;2023-05-14T07:44:49;100068.25;;;16.00;100.00
59971;BME280;45825;45.434;9.116;2023-05-14T07:47:15;100064.38;;;15.82;100.00
59971;BME280;45825;45.434;9.116;2023-05-14T07:49:40;100056.09;;;15.75;100.00
59971;BME280;45825;45.434;9.116;2023-05-14T07:52:06;100058.75;;;15.75;100.00
59971;BME280;45825;45.434;9.116;2023-05-14T07:54:31;100052.09;;;15.81;100.00
59971;BME280;45825;45.434;9.116;2023-05-14T07:56:56;100046.69;;;15.94;100.00
59971;BME280;45825;45.434;9.116;2023-05-14T07:59:21;100054.22;;;16.10;100.00
59971;BME280;45825;45.434;9.116;2023-05-14T08:01:47;100048.06;;;16.09;100.00
59971;BME280;45825;45.434;9.116;2023-05-14T08:04:12;100042.56;;;16.01;100.00
59971;BME280;45825;45.434;9.116;2023-05-14T08:06:40;100043.34;;;16.13;100.00
59971;BME280;45825;45.434;9.116;2023-05-14T08:09:06;100045.34;;;16.32;100.00
59971;BME280;45825;45.434;9.116;2023-05-14T08:11:31;100039.59;;;16.48;100.00
59971;BME280;45825;45.434;9.116;2023-05-14T08:13:56;100035.91;;;16.60;100.00
59971;BME280;45825;45.434;9.116;2023-05-14T08:16:22;100042.81;;;16.73;100.00
59971;BME280;45825;45.434;9.116;2023-05-14T08:18:47;100030.56;;;16.82;100.00
59971;BME280;45825;45.434;9.116;2023-05-14T08:21:13;100035.78;;;16.93;100.00
59971;BME280;45825;45.434;9.116;2023-05-14T08:23:38;100034.56;;;16.76;100.00
59971;BME280;45825;45.434;9.116;2023-05-14T08:26:03;100033.94;;;16.62;100.00
59971;BME280;45825;45.434;9.116;2023-05-14T08:28:29;100030.88;;;16.88;100.00
59971;BME280;45825;45.434;9.116;2023-05-14T08:30:54;100032.03;;;16.96;100.00
59971;BME280;45825;45.434;9.116;2023-05-14T08:33:19;100037.69;;;16.81;100.00
59971;BME280;45825;45.434;9.116;2023-05-14T08:35:45;100028.84;;;16.71;100.00
59971;BME280;45825;45.434;9.116;2023-05-14T08:38:10;100029.97;;;16.78;100.00
59971;BME280;45825;45.434;9.116;2023-05-14T08:40:35;100025.88;;;16.95;100.00
59971;BME280;45825;45.434;9.116;2023-05-14T08:43:01;100027.91;;;17.03;100.00
59971;BME280;45825;45.434;9.116;2023-05-14T08:45:29;100026.53;;;16.87;100.00
59971;BME280;45825;45.434;9.116;2023-05-14T08:47:57;100021.69;;;16.93;100.00
59971;BME280;45825;45.434;9.116;2023-05-14T08:50:24;100027.50;;;17.08;100.00
59971;BME280;45825;45.434;9.116;2023-05-14T08:52:50;100015.31;;;17.05;100.00
59971;BME280;45825;45.434;9.116;2023-05-14T08:55:17;100030.63;;;17.23;100.00
59971;BME280;45825;45.434;9.116;2023-05-14T08:57:42;100019.91;;;17.34;100.00
59971;BME280;45825;45.434;9.116;2023-05-14T09:00:08;100014.25;;;17.17;100.00
59971;BME280;45825;45.434;9.116;2023-05-14T09:02:40;100014.16;;;17.29;100.00
59971;BME280;45825;45.434;9.116;2023-05-14T09:05:07;100009.31;;;17.54;100.00
59971;BME280;45825;45.434;9.116;2023-05-14T09:07:33;100012.13;;;17.62;100.00
59971;BME280;45825;45.434;9.116;2023-05-14T09:10:00;100003.44;;;17.60;100.00
59971;BME280;45825;45.434;9.116;2023-05-14T09:12:26;100002.47;;;17.61;100.00
59971;BME280;45825;45.434;9.116;2023-05-14T09:14:51;99996.16;;;17.52;100.00
59971;BME280;45825;45.434;9.116;2023-05-14T09:17:17;99996.41;;;17.39;100.00
59971;BME280;45825;45.434;9.116;2023-05-14T09:19:43;100002.44;;;17.41;100.00
59971;BME280;45825;45.434;9.116;2023-05-14T09:22:13;99990.56;;;17.45;100.00
59971;BME280;45825;45.434;9.116;2023-05-14T09:24:39;99986.47;;;17.41;100.00
59971;BME280;45825;45.434;9.116;2023-05-14T09:27:05;99984.38;;;17.45;100.00
59971;BME280;45825;45.434;9.116;2023-05-14T09:29:31;99987.25;;;17.73;100.00
59971;BME280;45825;45.434;9.116;2023-05-14T09:31:57;99979.38;;;17.81;100.00
59971;BME280;45825;45.434;9.116;2023-05-14T09:34:28;99982.19;;;17.90;100.00
59971;BME280;45825;45.434;9.116;2023-05-14T09:37:05;99976.44;;;17.94;100.00
59971;BME280;45825;45.434;9.116;2023-05-14T09:39:32;99983.88;;;18.00;100.00
59971;BME280;45825;45.434;9.116;2023-05-14T09:41:57;99978.81;;;17.97;100.00
59971;BME280;45825;45.434;9.116;2023-05-14T09:44:23;99981.69;;;18.15;100.00
59971;BME280;45825;45.434;9.116;2023-05-14T09:46:50;99973.81;;;18.34;100.00
59971;BME280;45825;45.434;9.116;2023-05-14T09:49:17;99973.06;;;18.41;100.00
59971;BME280;45825;45.434;9.116;2023-05-14T09:51:42;99975.16;;;18.48;100.00
59971;BME280;45825;45.434;9.116;2023-05-14T09:54:08;99975.31;;;18.46;100.00
59971;BME280;45825;45.434;9.116;2023-05-14T09:56:34;99971.34;;;18.60;100.00
59971;BME280;45825;45.434;9.116;2023-05-14T09:59:00;99961.66;;;18.69;100.00
59971;BME280;45825;45.434;9.116;2023-05-14T10:01:27;99961.41;;;18.62;100.00
59971;BME280;45825;45.434;9.116;2023-05-14T10:03:53;99952.72;;;18.88;100.00
59971;BME280;45825;45.434;9.116;2023-05-14T10:06:24;99952.41;;;18.63;100.00
59971;BME280;45825;45.434;9.116;2023-05-14T10:08:52;99948.09;;;18.52;100.00
59971;BME280;45825;45.434;9.116;2023-05-14T10:11:19;99945.97;;;19.04;100.00
59971;BME280;45825;45.434;9.116;2023-05-14T10:14:00;99940.03;;;18.72;100.00
59971;BME280;45825;45.434;9.116;2023-05-14T10:16:30;99937.03;;;18.85;100.00
59971;BME280;45825;45.434;9.116;2023-05-14T10:19:10;99937.34;;;18.82;100.00
59971;BME280;45825;45.434;9.116;2023-05-14T10:21:37;99932.66;;;19.04;100.00
59971;BME280;45825;45.434;9.116;2023-05-14T10:24:05;99929.50;;;19.36;100.00
59971;BME280;45825;45.434;9.116;2023-05-14T10:26:33;99923.69;;;19.41;100.00
59971;BME280;45825;45.434;9.116;2023-05-14T10:28:58;99924.41;;;18.87;100.00
59971;BME280;45825;45.434;9.116;2023-05-14T10:31:44;99918.97;;;18.79;100.00
59971;BME280;45825;45.434;9.116;2023-05-14T10:34:38;99924.72;;;18.74;100.00
59971;BME280;45825;45.434;9.116;2023-05-14T10:37:12;99910.25;;;18.87;100.00
59971;BME280;45825;45.434;9.116;2023-05-14T10:39:51;99915.69;;;19.23;100.00
59971;BME280;45825;45.434;9.116;2023-05-14T10:42:20;99909.56;;;19.12;100.00
59971;BME280;45825;45.434;9.116;2023-05-14T10:44:55;99903.38;;;19.12;100.00
59971;BME280;45825;45.434;9.116;2023-05-14T10:47:25;99898.94;;;19.31;100.00
59971;BME280;45825;45.434;9.116;2023-05-14T10:49:54;99894.59;;;19.30;100.00
59971;BME280;45825;45.434;9.116;2023-05-14T10:52:21;99890.94;;;19.31;100.00
59971;BME280;45825;45.434;9.116;2023-05-14T10:54:54;99887.25;;;19.50;100.00
59971;BME280;45825;45.434;9.116;2023-05-14T10:57:22;99895.88;;;19.62;100.00
59971;BME280;45825;45.434;9.116;2023-05-14T10:59:48;99894.06;;;19.62;100.00
59971;BME280;45825;45.434;9.116;2023-05-14T11:02:24;99884.22;;;19.63;100.00
59971;BME280;45825;45.434;9.116;2023-05-14T11:04:55;99872.31;;;19.93;100.00
59971;BME280;45825;45.434;9.116;2023-05-14T11:07:27;99872.28;;;20.12;100.00
59971;BME280;45825;45.434;9.116;2023-05-14T11:12:26;99863.69;;;19.81;100.00
59971;BME280;45825;45.434;9.116;2023-05-14T11:14:52;99846.16;;;19.79;100.00
59971;BME280;45825;45.434;9.116;2023-05-14T11:17:18;99840.72;;;20.42;100.00
59971;BME280;45825;45.434;9.116;2023-05-14T11:19:43;99846.28;;;20.57;100.00
59971;BME280;45825;45.434;9.116;2023-05-14T11:22:10;99843.00;;;20.28;100.00
59971;BME280;45825;45.434;9.116;2023-05-14T11:24:38;99841.50;;;20.34;100.00
59971;BME280;45825;45.434;9.116;2023-05-14T11:27:03;99835.31;;;20.25;100.00
59971;BME280;45825;45.434;9.116;2023-05-14T11:29:29;99829.84;;;20.08;91.08
59971;BME280;45825;45.434;9.116;2023-05-14T11:31:56;99830.19;;;19.87;90.95
59971;BME280;45825;45.434;9.116;2023-05-14T11:34:21;99820.31;;;19.79;87.90
59971;BME280;45825;45.434;9.116;2023-05-14T11:36:47;99821.09;;;19.53;87.39
59971;BME280;45825;45.434;9.116;2023-05-14T11:39:17;99807.66;;;19.37;88.19
59971;BME280;45825;45.434;9.116;2023-05-14T11:41:43;99807.78;;;19.35;84.49
59971;BME280;45825;45.434;9.116;2023-05-14T11:44:09;99799.66;;;19.37;83.73
59971;BME280;45825;45.434;9.116;2023-05-14T11:46:35;99804.88;;;19.47;82.17
59971;BME280;45825;45.434;9.116;2023-05-14T11:49:03;99803.00;;;19.21;80.93
59971;BME280;45825;45.434;9.116;2023-05-14T11:51:28;99806.13;;;19.16;81.74
59971;BME280;45825;45.434;9.116;2023-05-14T11:53:53;99796.16;;;19.00;80.88
59971;BME280;45825;45.434;9.116;2023-05-14T11:56:20;99798.72;;;19.28;80.96
59971;BME280;45825;45.434;9.116;2023-05-14T11:58:47;99797.34;;;19.42;80.37
59971;BME280;45825;45.434;9.116;2023-05-14T12:01:13;99792.25;;;19.75;78.38
59971;BME280;45825;45.434;9.116;2023-05-14T12:03:38;99778.91;;;20.02;77.34
59971;BME280;45825;45.434;9.116;2023-05-14T12:06:05;99787.56;;;20.22;76.49
59971;BME280;45825;45.434;9.116;2023-05-14T12:08:32;99778.25;;;20.34;76.46
59971;BME280;45825;45.434;9.116;2023-05-14T12:10:58;99769.75;;;20.47;75.06
59971;BME280;45825;45.434;9.116;2023-05-14T12:13:31;99783.03;;;20.22;75.09
59971;BME280;45825;45.434;9.116;2023-05-14T12:15:58;99765.03;;;20.33;74.69
59971;BME280;45825;45.434;9.116;2023-05-14T12:18:26;99760.56;;;20.42;75.48
59971;BME280;45825;45.434;9.116;2023-05-14T12:20:52;99766.97;;;20.57;73.73
59971;BME280;45825;45.434;9.116;2023-05-14T12:23:27;99770.25;;;20.43;66.43
59971;BME280;45825;45.434;9.116;2023-05-14T12:25:53;99770.13;;;20.52;64.74
59971;BME280;45825;45.434;9.116;2023-05-14T12:28:19;99768.81;;;20.65;62.14
59971;BME280;45825;45.434;9.116;2023-05-14T12:30:45;99763.56;;;20.90;62.10
59971;BME280;45825;45.434;9.116;2023-05-14T12:33:11;99764.44;;;21.24;57.09
59971;BME280;45825;45.434;9.116;2023-05-14T12:35:37;99747.38;;;21.25;52.10
59971;BME280;45825;45.434;9.116;2023-05-14T12:38:03;99749.88;;;21.01;52.40
59971;BME280;45825;45.434;9.116;2023-05-14T12:40:28;99742.84;;;21.08;52.48
59971;BME280;45825;45.434;9.116;2023-05-14T12:42:54;99742.69;;;20.93;51.83
59971;BME280;45825;45.434;9.116;2023-05-14T12:45:19;99742.06;;;20.57;51.54
59971;BME280;45825;45.434;9.116;2023-05-14T12:47:45;99727.88;;;20.64;52.50
59971;BME280;45825;45.434;9.116;2023-05-14T12:50:10;99722.56;;;20.73;53.33